createdAt,value
2023-01-29T00:01:10.368Z,101797.40
2023-01-29T00:03:39.429Z,101791.70
2023-01-29T00:06:09.784Z,101785.42
2023-01-29T00:08:38.844Z,101785.23
2023-01-29T00:11:08.838Z,101788.34
2023-01-29T00:13:37.375Z,101786.72
2023-01-29T00:16:05.803Z,101785.88
2023-01-29T00:18:34.377Z,101784.70
2023-01-29T00:21:05.077Z,101778.80
2023-01-29T00:23:34.503Z,101766.27
2023-01-29T00:26:03.087Z,101768.30
2023-01-29T00:28:31.621Z,101767.63
2023-01-29T00:30:59.772Z,101767.05
2023-01-29T00:33:29.826Z,101758.11
2023-01-29T00:35:58.270Z,101758.84
2023-01-29T00:38:26.467Z,101758.01
2023-01-29T00:41:13.525Z,101759.05
2023-01-29T00:44:00.377Z,101761.00
2023-01-29T00:46:32.220Z,101764.33
2023-01-29T00:49:04.147Z,101766.24
2023-01-29T00:51:32.467Z,101768.92
2023-01-29T00:54:02.831Z,101772.69
2023-01-29T00:56:31.516Z,101768.86
2023-01-29T00:58:59.930Z,101765.48
2023-01-29T01:01:46.809Z,101764.03
2023-01-29T01:04:15.298Z,101758.23
2023-01-29T01:06:46.953Z,101760.21
2023-01-29T01:09:34.110Z,101756.64
2023-01-29T01:12:03.024Z,101752.13
2023-01-29T01:14:31.462Z,101747.23
2023-01-29T01:17:03.233Z,101745.70
2023-01-29T01:19:31.483Z,101750.95
2023-01-29T01:21:59.741Z,101751.80
2023-01-29T01:24:28.161Z,101753.39
2023-01-29T01:26:56.371Z,101749.45
2023-01-29T01:29:25.730Z,101746.31
2023-01-29T01:31:54.945Z,101746.28
2023-01-29T01:34:24.736Z,101739.95
2023-01-29T01:36:54.349Z,101737.11
2023-01-29T01:39:23.343Z,101743.52
2023-01-29T01:41:55.480Z,101759.30
2023-01-29T01:44:51.324Z,101765.70
2023-01-29T01:47:38.238Z,101759.41
2023-01-29T01:50:31.559Z,101759.14
2023-01-29T01:53:05.698Z,101759.81
2023-01-29T01:55:38.147Z,101758.15
2023-01-29T01:58:12.775Z,101759.26
2023-01-29T02:00:43.056Z,101760.35
2023-01-29T02:03:31.714Z,101764.05
2023-01-29T02:06:19.576Z,101766.50
2023-01-29T02:09:22.016Z,101760.77
2023-01-29T02:11:51.715Z,101750.26
2023-01-29T02:14:20.729Z,101746.46
2023-01-29T02:16:49.569Z,101746.07
2023-01-29T02:19:40.320Z,101737.29
2023-01-29T02:22:25.949Z,101723.83
2023-01-29T02:25:19.471Z,101728.39
2023-01-29T02:28:06.206Z,101726.86
2023-01-29T02:30:41.812Z,101724.54
2023-01-29T02:33:47.153Z,101722.34
2023-01-29T02:36:20.826Z,101719.50
2023-01-29T02:39:13.834Z,101715.28
2023-01-29T02:41:49.869Z,101708.77
2023-01-29T02:44:47.484Z,101712.21
2023-01-29T02:47:23.240Z,101708.73
2023-01-29T02:50:18.305Z,101710.05
2023-01-29T02:53:03.649Z,101705.68
2023-01-29T02:56:08.553Z,101696.58
2023-01-29T02:58:43.107Z,101688.88
2023-01-29T03:01:30.653Z,101676.55
2023-01-29T03:04:11.810Z,101680.95
2023-01-29T03:06:54.012Z,101678.16
2023-01-29T03:09:41.816Z,101668.02
2023-01-29T03:12:49.392Z,101664.52
2023-01-29T03:15:27.671Z,101655.23
2023-01-29T03:17:59.354Z,101651.38
2023-01-29T03:20:33.548Z,101648.90
2023-01-29T03:23:08.120Z,101658.45
2023-01-29T03:25:57.738Z,101650.04
2023-01-29T03:28:47.861Z,101643.94
2023-01-29T03:31:36.880Z,101639.17
2023-01-29T03:34:24.448Z,101635.81
2023-01-29T03:36:59.150Z,101639.09
2023-01-29T03:39:29.585Z,101636.59
2023-01-29T03:42:24.785Z,101638.35
2023-01-29T03:45:00.831Z,101636.69
2023-01-29T03:47:44.864Z,101632.01
2023-01-29T03:50:37.077Z,101629.92
2023-01-29T03:53:29.762Z,101629.63
2023-01-29T03:56:02.847Z,101632.73
2023-01-29T03:58:37.784Z,101628.12
2023-01-29T04:01:15.371Z,101627.30
2023-01-29T04:03:50.683Z,101622.28
2023-01-29T04:06:26.152Z,101619.05
2023-01-29T04:09:11.189Z,101614.64
2023-01-29T04:11:45.581Z,101614.92
2023-01-29T04:14:14.695Z,101612.60
2023-01-29T04:16:51.743Z,101607.46
2023-01-29T04:19:20.771Z,101599.85
2023-01-29T04:21:53.972Z,101602.87
2023-01-29T04:24:22.223Z,101596.17
2023-01-29T04:27:31.647Z,101600.98
2023-01-29T04:30:48.350Z,101601.66
2023-01-29T04:33:55.110Z,101597.00
2023-01-29T04:36:47.434Z,101594.06
2023-01-29T04:39:27.341Z,101586.11
2023-01-29T04:42:14.384Z,101587.55
2023-01-29T04:44:59.299Z,101591.95
2023-01-29T04:47:41.522Z,101599.21
2023-01-29T04:50:16.153Z,101603.04
2023-01-29T04:53:18.917Z,101595.09
2023-01-29T04:55:54.723Z,101588.66
2023-01-29T04:58:30.172Z,101582.40
2023-01-29T05:01:00.671Z,101586.26
2023-01-29T05:03:31.690Z,101591.09
2023-01-29T05:06:03.582Z,101589.30
2023-01-29T05:08:33.893Z,101587.52
2023-01-29T05:11:02.449Z,101587.23
2023-01-29T05:13:33.549Z,101592.05
2023-01-29T05:16:10.445Z,101589.98
2023-01-29T05:18:39.028Z,101579.36
2023-01-29T05:21:09.626Z,101571.17
2023-01-29T05:23:38.341Z,101578.41
2023-01-29T05:26:06.684Z,101574.73
2023-01-29T05:28:34.876Z,101578.46
2023-01-29T05:31:03.123Z,101584.39
2023-01-29T05:33:32.340Z,101593.92
2023-01-29T05:36:05.632Z,101587.73
2023-01-29T05:38:34.466Z,101584.80
2023-01-29T05:41:02.653Z,101582.06
2023-01-29T05:43:30.958Z,101582.14
2023-01-29T05:46:01.304Z,101585.13
2023-01-29T05:48:31.643Z,101581.68
2023-01-29T05:51:05.454Z,101573.32
2023-01-29T05:53:34.361Z,101570.88
2023-01-29T05:56:04.445Z,101581.23
2023-01-29T05:58:33.901Z,101582.60
2023-01-29T06:01:17.129Z,101592.73
2023-01-29T06:03:46.548Z,101595.89
2023-01-29T06:06:15.494Z,101586.02
2023-01-29T06:08:44.760Z,101583.17
2023-01-29T06:11:14.790Z,101590.93
2023-01-29T06:13:43.043Z,101594.07
2023-01-29T06:16:16.523Z,101596.73
2023-01-29T06:18:45.142Z,101600.23
2023-01-29T06:21:14.670Z,101599.89
2023-01-29T06:23:43.796Z,101604.45
2023-01-29T06:26:15.006Z,101603.13
2023-01-29T06:28:44.244Z,101607.17
2023-01-29T06:31:27.453Z,101614.56
2023-01-29T06:34:01.679Z,101610.58
2023-01-29T06:36:29.972Z,101606.72
2023-01-29T06:38:58.533Z,101604.28
2023-01-29T06:41:27.198Z,101599.15
2023-01-29T06:43:55.683Z,101594.92
2023-01-29T06:46:24.660Z,101596.34
2023-01-29T06:48:53.221Z,101590.53
2023-01-29T06:51:23.249Z,101591.29
2023-01-29T06:53:51.557Z,101584.45
2023-01-29T06:56:19.984Z,101579.92
2023-01-29T06:58:52.514Z,101573.79
2023-01-29T07:01:35.284Z,101574.92
2023-01-29T07:04:04.664Z,101582.79
2023-01-29T07:06:33.693Z,101578.74
2023-01-29T07:09:05.822Z,101579.18
2023-01-29T07:11:38.760Z,101585.25
2023-01-29T07:14:07.272Z,101579.12
2023-01-29T07:16:35.474Z,101575.66
2023-01-29T07:19:03.969Z,101577.82
2023-01-29T07:21:32.210Z,101577.30
2023-01-29T07:24:00.842Z,101571.53
2023-01-29T07:26:29.786Z,101570.89
2023-01-29T07:28:58.153Z,101567.66
2023-01-29T07:31:26.977Z,101572.52
2023-01-29T07:33:55.990Z,101570.46
2023-01-29T07:36:24.367Z,101570.91
2023-01-29T07:38:53.330Z,101572.15
2023-01-29T07:41:22.131Z,101572.63
2023-01-29T07:43:50.312Z,101573.86
2023-01-29T07:46:18.352Z,101575.25
2023-01-29T07:48:47.048Z,101574.09
2023-01-29T07:51:17.938Z,101577.06
2023-01-29T07:53:46.441Z,101573.62
2023-01-29T07:56:15.258Z,101567.24
2023-01-29T07:58:43.675Z,101567.30
2023-01-29T08:01:12.041Z,101560.30
2023-01-29T08:03:40.431Z,101550.34
2023-01-29T08:06:12.068Z,101550.24
2023-01-29T08:08:41.090Z,101548.34
2023-01-29T08:11:09.491Z,101545.34
2023-01-29T08:13:37.758Z,101545.02
2023-01-29T08:16:06.666Z,101536.25
2023-01-29T08:18:36.977Z,101533.97
2023-01-29T08:21:05.765Z,101527.33
2023-01-29T08:23:33.937Z,101523.89
2023-01-29T08:26:05.633Z,101517.66
2023-01-29T08:28:33.812Z,101511.27
2023-01-29T08:31:02.315Z,101513.15
2023-01-29T08:33:38.620Z,101508.27
2023-01-29T08:36:09.005Z,101510.20
2023-01-29T08:38:37.523Z,101504.04
2023-01-29T08:41:06.495Z,101498.23
2023-01-29T08:43:37.750Z,101505.08
2023-01-29T08:46:07.187Z,101504.34
2023-01-29T08:48:35.872Z,101503.98
2023-01-29T08:51:06.222Z,101502.00
2023-01-29T08:53:37.020Z,101501.27
2023-01-29T08:56:05.840Z,101497.14
2023-01-29T08:58:34.499Z,101497.49
2023-01-29T09:01:08.439Z,101506.05
2023-01-29T09:03:37.092Z,101511.22
2023-01-29T09:06:05.759Z,101510.08
2023-01-29T09:08:34.541Z,101506.70
2023-01-29T09:11:03.265Z,101509.14
2023-01-29T09:13:33.412Z,101508.99
2023-01-29T09:16:03.155Z,101513.05
2023-01-29T09:18:31.847Z,101525.17
2023-01-29T09:21:02.322Z,101521.28
2023-01-29T09:23:31.009Z,101517.54
2023-01-29T09:26:00.102Z,101522.20
2023-01-29T09:28:33.261Z,101525.00
2023-01-29T09:31:03.287Z,101518.77
2023-01-29T09:33:32.792Z,101515.85
2023-01-29T09:36:03.657Z,101512.11
2023-01-29T09:38:31.983Z,101510.30
2023-01-29T09:41:24.613Z,101515.88
2023-01-29T09:44:05.240Z,101508.02
2023-01-29T09:46:41.947Z,101508.76
2023-01-29T09:49:21.528Z,101509.59
2023-01-29T09:51:55.361Z,101508.84
2023-01-29T09:54:29.473Z,101498.92
2023-01-29T09:56:58.489Z,101495.69
2023-01-29T09:59:32.752Z,101497.02
2023-01-29T10:02:19.630Z,101486.56
2023-01-29T10:05:20.389Z,101475.18
2023-01-29T10:08:06.699Z,101472.85
2023-01-29T10:10:57.488Z,101474.95
2023-01-29T10:13:44.850Z,101464.84
2023-01-29T10:16:31.648Z,101455.88
2023-01-29T10:19:48.781Z,101451.48
2023-01-29T10:22:31.472Z,101440.26
2023-01-29T10:25:05.757Z,101434.68
2023-01-29T10:27:38.929Z,101436.02
2023-01-29T10:30:37.247Z,101426.30
2023-01-29T10:33:11.901Z,101416.38
2023-01-29T10:35:49.959Z,101410.70
2023-01-29T10:38:51.184Z,101405.40
2023-01-29T10:41:34.507Z,101398.66
2023-01-29T10:44:17.223Z,101390.66
2023-01-29T10:47:23.847Z,101390.45
2023-01-29T10:50:02.419Z,101392.84
2023-01-29T10:53:04.178Z,101395.60
2023-01-29T10:55:41.519Z,101384.90
2023-01-29T10:58:24.918Z,101385.70
2023-01-29T11:00:53.394Z,101390.52
2023-01-29T11:03:34.803Z,101395.44
2023-01-29T11:06:28.967Z,101388.97
2023-01-29T11:09:34.828Z,101380.80
2023-01-29T11:12:09.918Z,101377.04
2023-01-29T11:15:01.767Z,101377.01
2023-01-29T11:17:29.878Z,101381.16
2023-01-29T11:19:58.132Z,101374.52
2023-01-29T11:22:29.737Z,101367.16
2023-01-29T11:25:30.069Z,101365.25
2023-01-29T11:28:02.930Z,101358.02
2023-01-29T11:30:38.577Z,101362.41
2023-01-29T11:33:12.330Z,101365.92
2023-01-29T11:35:40.605Z,101366.38
2023-01-29T11:38:16.031Z,101359.73
2023-01-29T11:40:45.103Z,101349.97
2023-01-29T11:43:29.712Z,101349.45
2023-01-29T11:46:08.871Z,101345.95
2023-01-29T11:48:56.379Z,101338.54
2023-01-29T11:51:29.479Z,101331.05
2023-01-29T11:54:06.004Z,101328.29
2023-01-29T11:56:36.073Z,101321.68
2023-01-29T11:59:05.435Z,101313.92
2023-01-29T12:01:38.110Z,101311.19
2023-01-29T12:04:26.545Z,101313.76
2023-01-29T12:06:55.112Z,101317.81
2023-01-29T12:09:29.663Z,101306.34
2023-01-29T12:12:18.024Z,101305.99
2023-01-29T12:14:46.363Z,101304.86
2023-01-29T12:17:21.798Z,101296.27
2023-01-29T12:20:09.924Z,101293.20
2023-01-29T12:22:54.431Z,101291.83
2023-01-29T12:25:36.646Z,101288.25
2023-01-29T12:28:45.644Z,101285.81
2023-01-29T12:31:29.717Z,101287.05
2023-01-29T12:34:17.164Z,101292.19
2023-01-29T12:37:10.141Z,101290.05
2023-01-29T12:39:38.440Z,101292.34
2023-01-29T12:42:17.533Z,101287.73
2023-01-29T12:45:11.839Z,101282.66
2023-01-29T12:47:47.445Z,101279.63
2023-01-29T12:50:19.465Z,101283.48
2023-01-29T12:53:00.976Z,101284.52
2023-01-29T12:55:43.280Z,101284.84
2023-01-29T12:58:21.475Z,101280.30
2023-01-29T13:00:55.157Z,101278.92
2023-01-29T13:03:33.207Z,101271.70
2023-01-29T13:06:10.007Z,101269.11
2023-01-29T13:08:58.950Z,101268.20
2023-01-29T13:11:30.258Z,101269.98
2023-01-29T13:14:24.967Z,101259.60
2023-01-29T13:17:10.371Z,101255.81
2023-01-29T13:19:48.293Z,101249.25
2023-01-29T13:22:29.202Z,101245.97
2023-01-29T13:25:04.669Z,101246.80
2023-01-29T13:27:35.567Z,101239.19
2023-01-29T13:30:05.276Z,101239.23
2023-01-29T13:32:35.999Z,101244.11
2023-01-29T13:35:15.178Z,101243.16
2023-01-29T13:37:53.093Z,101240.88
2023-01-29T13:40:27.946Z,101233.42
2023-01-29T13:43:04.543Z,101230.84
2023-01-29T13:45:45.017Z,101225.61
2023-01-29T13:48:30.073Z,101228.57
2023-01-29T13:51:02.854Z,101226.14
2023-01-29T13:53:43.897Z,101220.13
2023-01-29T13:56:44.143Z,101219.02
2023-01-29T13:59:45.545Z,101219.61
2023-01-29T14:02:24.107Z,101215.07
2023-01-29T14:05:12.731Z,101206.02
2023-01-29T14:07:47.003Z,101211.13
2023-01-29T14:10:19.215Z,101207.88
2023-01-29T14:12:52.827Z,101202.11
2023-01-29T14:15:29.681Z,101200.09
2023-01-29T14:18:17.540Z,101201.89
2023-01-29T14:20:49.102Z,101204.92
2023-01-29T14:23:31.860Z,101220.92
2023-01-29T14:26:02.235Z,101219.46
2023-01-29T14:28:32.799Z,101211.98
2023-01-29T14:31:01.679Z,101207.42
2023-01-29T14:33:37.503Z,101209.02
2023-01-29T14:36:16.010Z,101213.70
2023-01-29T14:38:52.542Z,101217.30
2023-01-29T14:41:29.330Z,101214.43
2023-01-29T14:44:35.318Z,101212.01
2023-01-29T14:47:05.405Z,101205.41
2023-01-29T14:50:01.349Z,101202.92
2023-01-29T14:52:42.773Z,101200.27
2023-01-29T14:55:38.429Z,101207.20
2023-01-29T14:58:26.462Z,101207.99
2023-01-29T15:00:57.919Z,101203.61
2023-01-29T15:04:04.479Z,101202.37
2023-01-29T15:06:43.137Z,101201.86
2023-01-29T15:09:23.204Z,101194.66
2023-01-29T15:12:11.139Z,101194.09
2023-01-29T15:14:51.578Z,101183.91
2023-01-29T15:17:29.311Z,101180.27
2023-01-29T15:19:58.442Z,101188.47
2023-01-29T15:22:29.648Z,101190.77
2023-01-29T15:25:14.484Z,101189.26
2023-01-29T15:27:44.811Z,101181.39
2023-01-29T15:30:19.569Z,101177.03
2023-01-29T15:32:49.524Z,101174.66
2023-01-29T15:35:42.630Z,101178.05
2023-01-29T15:38:25.641Z,101182.69
2023-01-29T15:40:56.952Z,101171.79
2023-01-29T15:43:31.961Z,101159.53
2023-01-29T15:46:25.955Z,101159.81
2023-01-29T15:49:01.797Z,101157.96
2023-01-29T15:51:30.229Z,101153.34
2023-01-29T15:54:02.140Z,101154.56
2023-01-29T15:57:03.999Z,101146.05
2023-01-29T15:59:42.127Z,101144.62
2023-01-29T16:02:29.830Z,101139.98
2023-01-29T16:04:58.796Z,101134.01
2023-01-29T16:07:28.119Z,101130.45
2023-01-29T16:09:57.407Z,101134.71
2023-01-29T16:12:26.092Z,101130.14
2023-01-29T16:14:56.230Z,101126.49
2023-01-29T16:17:27.697Z,101120.70
2023-01-29T16:20:00.908Z,101119.33
2023-01-29T16:22:37.662Z,101119.69
2023-01-29T16:25:12.599Z,101112.31
2023-01-29T16:27:45.186Z,101110.84
2023-01-29T16:30:18.568Z,101111.75
2023-01-29T16:32:50.770Z,101116.52
2023-01-29T16:35:19.446Z,101115.05
2023-01-29T16:37:50.455Z,101111.52
2023-01-29T16:40:33.981Z,101112.86
2023-01-29T16:43:17.603Z,101109.20
2023-01-29T16:46:14.753Z,101106.35
2023-01-29T16:48:43.264Z,101109.00
2023-01-29T16:51:19.736Z,101102.50
2023-01-29T16:54:06.998Z,101105.81
2023-01-29T16:56:37.706Z,101094.35
2023-01-29T16:59:07.194Z,101093.19
2023-01-29T17:01:36.747Z,101074.89
2023-01-29T17:04:14.570Z,101075.66
2023-01-29T17:06:48.486Z,101077.30
2023-01-29T17:09:26.492Z,101079.06
2023-01-29T17:11:58.771Z,101081.32
2023-01-29T17:14:27.383Z,101083.45
2023-01-29T17:17:07.387Z,101080.67
2023-01-29T17:19:35.978Z,101086.91
2023-01-29T17:22:09.722Z,101084.91
2023-01-29T17:24:37.881Z,101081.45
2023-01-29T17:27:06.089Z,101081.02
2023-01-29T17:29:34.680Z,101075.88
2023-01-29T17:32:03.180Z,101067.43
2023-01-29T17:34:31.712Z,101068.02
2023-01-29T17:37:02.958Z,101058.61
2023-01-29T17:39:31.270Z,101058.45
2023-01-29T17:42:02.125Z,101048.61
2023-01-29T17:44:30.311Z,101048.20
2023-01-29T17:46:58.829Z,101046.03
2023-01-29T17:49:29.456Z,101038.08
2023-01-29T17:51:57.711Z,101035.51
2023-01-29T17:54:28.390Z,101037.31
2023-01-29T17:56:58.424Z,101027.10
2023-01-29T17:59:31.598Z,101025.31
2023-01-29T18:02:00.673Z,101026.36
2023-01-29T18:04:30.852Z,101024.55
2023-01-29T18:06:59.233Z,101021.50
2023-01-29T18:09:28.330Z,101024.04
2023-01-29T18:11:56.866Z,101021.48
2023-01-29T18:14:25.775Z,101021.74
2023-01-29T18:16:57.327Z,101012.45
2023-01-29T18:19:31.379Z,101014.41
2023-01-29T18:22:00.091Z,101013.87
2023-01-29T18:24:28.823Z,101006.77
2023-01-29T18:26:57.585Z,100998.92
2023-01-29T18:29:30.150Z,100995.94
2023-01-29T18:31:58.783Z,100991.33
2023-01-29T18:34:27.213Z,100983.27
2023-01-29T18:36:55.379Z,100975.04
2023-01-29T18:39:23.455Z,100966.10
2023-01-29T18:41:53.418Z,100963.09
2023-01-29T18:44:21.819Z,100954.83
2023-01-29T18:46:49.979Z,100952.85
2023-01-29T18:49:18.217Z,100947.65
2023-01-29T18:51:46.491Z,100949.80
2023-01-29T18:54:16.001Z,100940.51
2023-01-29T18:57:13.156Z,100938.59
2023-01-29T18:59:35.644Z,100939.09
2023-01-29T19:02:04.227Z,100937.40
2023-01-29T19:04:32.426Z,100932.15
2023-01-29T19:07:00.793Z,100932.33
2023-01-29T19:09:29.245Z,100926.48
2023-01-29T19:11:57.553Z,100919.63
2023-01-29T19:14:25.922Z,100921.41
2023-01-29T19:16:54.674Z,100920.47
2023-01-29T19:19:22.983Z,100916.92
2023-01-29T19:21:54.688Z,100912.42
2023-01-29T19:24:26.096Z,100909.56
2023-01-29T19:26:54.642Z,100901.87
2023-01-29T19:29:22.923Z,100899.83
2023-01-29T19:31:51.198Z,100893.93
2023-01-29T19:34:19.503Z,100898.10
2023-01-29T19:36:48.425Z,100889.69
2023-01-29T19:39:16.984Z,100886.52
2023-01-29T19:41:45.671Z,100886.48
2023-01-29T19:44:14.454Z,100881.58
2023-01-29T19:46:47.055Z,100884.22
2023-01-29T19:49:15.740Z,100879.23
2023-01-29T19:51:45.510Z,100878.80
2023-01-29T19:54:14.250Z,100871.45
2023-01-29T19:56:42.987Z,100870.87
2023-01-29T19:59:11.429Z,100869.15
2023-01-29T20:01:42.640Z,100868.33
2023-01-29T20:04:11.521Z,100864.46
2023-01-29T20:06:40.063Z,100857.58
2023-01-29T20:09:08.889Z,100853.52
2023-01-29T20:11:37.162Z,100850.77
2023-01-29T20:14:09.182Z,100846.92
2023-01-29T20:16:40.381Z,100837.95
2023-01-29T20:19:13.408Z,100833.66
2023-01-29T20:21:49.192Z,100835.78
2023-01-29T20:24:20.311Z,100832.08
2023-01-29T20:26:49.321Z,100829.45
2023-01-29T20:29:18.881Z,100823.61
2023-01-29T20:31:48.160Z,100821.48
2023-01-29T20:34:16.732Z,100811.30
2023-01-29T20:36:44.995Z,100811.88
2023-01-29T20:39:13.960Z,100799.80
2023-01-29T20:41:42.916Z,100796.25
2023-01-29T20:44:11.333Z,100793.14
2023-01-29T20:46:40.048Z,100788.34
2023-01-29T20:49:09.216Z,100788.13
2023-01-29T20:51:37.482Z,100780.63
2023-01-29T20:54:05.815Z,100779.36
2023-01-29T20:56:40.140Z,100767.64
2023-01-29T20:59:13.770Z,100761.98
2023-01-29T21:01:43.323Z,100753.34
2023-01-29T21:04:11.839Z,100748.14
2023-01-29T21:06:40.385Z,100739.02
2023-01-29T21:09:08.772Z,100739.77
2023-01-29T21:11:37.137Z,100744.81
2023-01-29T21:14:05.643Z,100741.02
2023-01-29T21:16:34.243Z,100731.41
2023-01-29T21:19:06.047Z,100724.14
2023-01-29T21:21:35.252Z,100714.77
2023-01-29T21:24:03.781Z,100714.32
2023-01-29T21:26:38.461Z,100710.06
2023-01-29T21:29:07.066Z,100709.05
2023-01-29T21:31:35.375Z,100706.14
2023-01-29T21:34:05.555Z,100707.65
2023-01-29T21:36:34.935Z,100710.54
2023-01-29T21:39:16.925Z,100704.86
2023-01-29T21:42:05.656Z,100699.27
2023-01-29T21:44:35.923Z,100692.98
2023-01-29T21:47:14.156Z,100693.65
2023-01-29T21:49:44.194Z,100681.85
2023-01-29T21:52:15.482Z,100680.80
2023-01-29T21:54:49.144Z,100679.89
2023-01-29T21:57:20.939Z,100672.49
2023-01-29T21:59:53.110Z,100664.69
2023-01-29T22:02:23.947Z,100659.20
2023-01-29T22:04:54.196Z,100646.40
2023-01-29T22:07:23.662Z,100643.30
2023-01-29T22:09:52.278Z,100639.15
2023-01-29T22:12:20.649Z,100634.30
2023-01-29T22:14:50.004Z,100638.13
2023-01-29T22:17:20.445Z,100634.30
2023-01-29T22:19:48.962Z,100637.59
2023-01-29T22:22:18.684Z,100630.15
2023-01-29T22:24:47.197Z,100624.95
2023-01-29T22:27:16.224Z,100623.41
2023-01-29T22:29:45.465Z,100614.58
2023-01-29T22:32:14.615Z,100613.54
2023-01-29T22:34:43.246Z,100599.36
2023-01-29T22:37:12.021Z,100590.54
2023-01-29T22:39:40.419Z,100584.84
2023-01-29T22:42:11.502Z,100574.94
2023-01-29T22:44:39.781Z,100569.42
2023-01-29T22:47:08.491Z,100566.15
2023-01-29T22:49:37.024Z,100555.42
2023-01-29T22:52:11.683Z,100550.91
2023-01-29T22:54:43.026Z,100551.78
2023-01-29T22:57:14.832Z,100543.99
2023-01-29T22:59:43.383Z,100533.98
2023-01-29T23:02:11.864Z,100532.95
2023-01-29T23:04:40.408Z,100529.80
2023-01-29T23:07:08.890Z,100522.21
2023-01-29T23:09:37.386Z,100513.36
2023-01-29T23:12:11.144Z,100506.15
2023-01-29T23:14:39.654Z,100498.19
2023-01-29T23:17:08.641Z,100490.23
2023-01-29T23:19:36.996Z,100482.11
2023-01-29T23:22:05.547Z,100476.05
2023-01-29T23:24:34.078Z,100473.62
2023-01-29T23:27:14.884Z,100463.95
2023-01-29T23:29:45.145Z,100454.17
2023-01-29T23:32:16.959Z,100450.77
2023-01-29T23:34:45.419Z,100453.76
2023-01-29T23:37:14.054Z,100444.04
2023-01-29T23:39:42.413Z,100440.97
2023-01-29T23:42:11.891Z,100428.88
2023-01-29T23:44:43.311Z,100423.51
2023-01-29T23:47:11.691Z,100414.88
2023-01-29T23:49:39.876Z,100395.86
2023-01-29T23:52:08.124Z,100385.84
2023-01-29T23:54:36.717Z,100395.17
2023-01-29T23:57:04.884Z,100383.80
2023-01-29T23:59:33.084Z,100380.45
